Mount Hope, Kansas
Current Conditions -  °F | °C
As of 7:52 AM on Wednesday 28 Jan 2015 (Local Time) from KHUT Reporting Station
Clear Clear  
Wind Chill: 33°   Ceiling: Unl
Heat Index: 39°   Visibility: 10mi
Dew Point: 33°   Wind: 9mph
Humidity: 79%   Direction: 180°S
Pressure: 29.87"   Gusts: NA
Location:  37.87°N, 97.67°W
Report Text: KHUT 281352Z 18008KT 10SM CLR 04/01 A2987 RMK AO2 SLP111 T00390006
Loading
Personal Weather Stations






























Interactive Weather Map New forecast layout! Learn more

10-Day Weather Forecast

Advertisements
Track Severe Weather on mobile